Lightning — WDG8552 — position and weather

sailwx.info

Track history (hours):
 
Tides and Currents Weather Stations Pressure Air Temp Water Temp Dewpoint Dewpoint Depression Visibility Wind Speed Wind Dir Waves Ship Positions

Lightning

Owner: Boston Harbor Cruises, Boston, MA. More information available from US FCC via Universal Licensing System and Coast Guard Vessel Documentation Center.

Last reported at 2018-May-22 17:30 UTC. Time now 2018-May-22 17:56 UTC.
Position N 42°18' W 070°55'.

Length 22 m; draft 2.6 m.

Type: High speed craft. MMSI: 367578720.

Date/timePositionNaut miles runAvg speedWind from/ knotsBaromVisibWave heightAir tempDewpointWater temp
2018-May-22 17:30N 42°18' W 070°55'713.5
2018-May-22 17:00N 42°22' W 071°03'3 6.7
2018-May-22 16:30N 42°20' W 070°59'611.1
2018-May-22 16:00N 42°15' W 070°55'3 5.8
2018-May-22 15:30N 42°18' W 070°55'713.4
2018-May-22 15:00N 42°22' W 071°03'0 0.0
2018-May-22 14:29N 42°22' W 071°03'0 0.0
2018-May-22 14:01N 42°22' W 071°03'0 0.5
2018-May-22 13:30N 42°22' W 071°03'713.1
2018-May-22 13:00N 42°18' W 070°55'713.5
2018-May-22 12:30N 42°22' W 071°03'713.5
2018-May-22 12:00N 42°18' W 070°55'612.9
2018-May-22 11:30N 42°22' W 071°03'612.8
2018-May-22 11:00N 42°18' W 070°55'3 5.9
2018-May-22 10:30N 42°15' W 070°55'2 4.5
2018-May-22 10:00N 42°15' W 070°58'0 0.3
2018-May-22 09:30N 42°15' W 070°58'  
2018-May-18 18:44N 42°15' W 070°58'0 0.1
2018-May-18 18:30N 42°15' W 070°58'0 0.0
2018-May-18 18:00N 42°15' W 070°58'0 0.0
2018-May-18 02:52N 42°15' W 070°58'2 6.5
2018-May-18 02:30N 42°15' W 070°55'816.0
2018-May-18 02:00N 42°22' W 071°02'1 1.3
2018-May-18 01:30N 42°22' W 071°03'816.9
2018-May-18 01:00N 42°15' W 070°55'612.1
2018-May-18 00:30N 42°20' W 070°59'2 4.1
2018-May-18 00:00N 42°22' W 071°02'815.9
2018-May-17 23:30N 42°15' W 070°55'3 6.4
2018-May-17 23:00N 42°18' W 070°56'612.7
2018-May-17 22:30N 42°22' W 071°03'713.5
2018-May-17 22:00N 42°18' W 070°55'713.4
2018-May-17 21:30N 42°22' W 071°03'1 1.9
2018-May-17 21:01N 42°22' W 071°02'815.9
2018-May-17 20:30N 42°15' W 070°55'3 5.8
2018-May-17 20:00N 42°18' W 070°55'713.2
2018-May-17 19:30N 42°22' W 071°03'917.4
2018-May-17 19:01N 42°15' W 070°55'0 0.6
2018-May-17 18:30N 42°16' W 070°55'816.9
2018-May-17 18:00N 42°22' W 071°03'1 2.0
2018-May-17 17:30N 42°21' W 071°02'815.6
2018-May-17 17:00N 42°15' W 070°55'5 9.6
2018-May-17 16:30N 42°19' W 070°59'4 7.5
2018-May-17 16:00N 42°22' W 071°03'0 0.0
2018-May-17 15:30N 42°22' W 071°03'0 0.5
2018-May-17 15:00N 42°22' W 071°03'4 7.1
2018-May-17 14:30N 42°20' W 070°58'510.7
2018-May-17 14:00N 42°15' W 070°55'612.3
2018-May-17 13:30N 42°20' W 071°00'2 4.9
2018-May-17 13:00N 42°22' W 071°03'713.1
2018-May-17 12:30N 42°18' W 070°55'713.6
2018-May-17 12:01N 42°22' W 071°03'713.4
2018-May-17 11:30N 42°18' W 070°55'0 0.4
2018-May-17 11:01N 42°18' W 070°55'612.2
2018-May-17 10:31N 42°22' W 071°02'612.5
2018-May-17 10:00N 42°18' W 070°55'0 0.0
2018-May-17 01:41N 42°18' W 070°55'421.7
2018-May-17 01:30N 42°20' W 070°59'3 6.0
2018-May-17 01:00N 42°22' W 071°03'917.2
2018-May-17 00:30N 42°15' W 070°55'3 6.5
2018-May-17 00:00N 42°18' W 070°58'510.7
2018-May-16 23:30N 42°22' W 071°03'815.9
2018-May-16 22:59N 42°16' W 070°55'2 4.4
2018-May-16 22:30N 42°18' W 070°55'713.3
2018-May-16 22:00N 42°22' W 071°03'3 6.9
2018-May-16 21:30N 42°19' W 070°60'4 8.9
2018-May-16 21:00N 42°16' W 070°56'815.5
2018-May-16 20:31N 42°22' W 071°03'4 8.8
2018-May-16 20:00N 42°19' W 070°59'4 8.2
2018-May-16 19:30N 42°16' W 070°55'4 7.8
2018-May-16 19:01N 42°19' W 070°56'510.5
2018-May-16 18:30N 42°22' W 071°03'916.8
2018-May-16 18:00N 42°15' W 070°55'3 5.9
2018-May-16 17:30N 42°18' W 070°55'713.6
2018-May-16 17:00N 42°22' W 071°03'4 8.5
2018-May-16 16:31N 42°20' W 070°58'510.1
2018-May-16 16:00N 42°15' W 070°55'3 5.8
2018-May-16 15:30N 42°18' W 070°55'713.5
2018-May-16 15:00N 42°22' W 071°03'0 0.0
2018-May-16 14:30N 42°22' W 071°03'0 0.0
2018-May-16 14:00N 42°22' W 071°03'0 0.0
2018-May-16 13:30N 42°22' W 071°03'713.5
2018-May-16 13:00N 42°18' W 070°55'713.5
2018-May-16 12:30N 42°22' W 071°03'713.5
2018-May-16 12:00N 42°18' W 070°55'612.8
2018-May-16 11:30N 42°22' W 071°03'613.2
2018-May-16 11:00N 42°18' W 070°55'3 0.3
2018-May-16 02:03N 42°15' W 070°55'0 5.5
2018-May-16 02:00N 42°15' W 070°55'612.2
2018-May-16 01:30N 42°20' W 070°60'3 5.2
2018-May-16 01:00N 42°22' W 071°03'816.9
2018-May-16 00:31N 42°15' W 070°55'4 7.6
2018-May-16 00:00N 42°18' W 070°58'5 9.7
2018-May-15 23:30N 42°22' W 071°03'816.5
2018-May-15 23:00N 42°16' W 070°55'2 4.7
2018-May-15 22:30N 42°18' W 070°55'713.6
2018-May-15 22:00N 42°22' W 071°03'4 8.5
2018-May-15 21:30N 42°19' W 070°59'3 6.8
2018-May-15 21:00N 42°16' W 070°56'815.3
2018-May-15 20:30N 42°22' W 071°03'4 8.1
2018-May-15 20:00N 42°19' W 070°59'4 8.6
2018-May-15 19:31N 42°16' W 070°55'3 5.8
2018-May-15 19:01N 42°18' W 070°56'612.4
2018-May-15 18:30N 42°22' W 071°03'917.2
2018-May-15 18:00N 42°15' W 070°55'3 5.8
2018-May-15 17:30N 42°18' W 070°55'713.4
2018-May-15 17:00N 42°22' W 071°03'3 6.4
2018-May-15 16:30N 42°20' W 070°59'611.2
2018-May-15 16:00N 42°15' W 070°55'3 5.8
2018-May-15 15:30N 42°18' W 070°55'713.4
2018-May-15 15:00N 42°22' W 071°03'0 0.0
2018-May-15 14:30N 42°22' W 071°03'0 0.0
2018-May-15 14:00N 42°22' W 071°03'0 0.0
2018-May-15 13:30N 42°22' W 071°03'713.5
2018-May-15 13:00N 42°18' W 070°55'713.4
2018-May-15 12:30N 42°22' W 071°03'713.6
2018-May-15 12:00N 42°18' W 070°55'713.0
2018-May-15 11:31N 42°22' W 071°03'612.9
2018-May-15 11:00N 42°18' W 070°55'3 5.9
2018-May-15 10:30N 42°15' W 070°55'  
Track history (hours):
 
Tides and Currents Weather Stations Pressure Air Temp Water Temp Dewpoint Dewpoint Depression Visibility Wind Speed Wind Dir Waves Ship Positions

Lightning

Owner: Boston Harbor Cruises, Boston, MA. More information available from US FCC via Universal Licensing System and Coast Guard Vessel Documentation Center.

Last reported at 2018-May-22 17:30 UTC. Time now 2018-May-22 17:56 UTC.
Position N 42°18' W 070°55'.

Length 22 m; draft 2.6 m.

Type: High speed craft. MMSI: 367578720.

Date/timePositionNaut miles runAvg speedWind from/ knotsBaromVisibWave heightAir tempDewpointWater temp
2018-May-22 17:30N 42°18' W 070°55'713.5
2018-May-22 17:00N 42°22' W 071°03'3 6.7
2018-May-22 16:30N 42°20' W 070°59'611.1
2018-May-22 16:00N 42°15' W 070°55'3 5.8
2018-May-22 15:30N 42°18' W 070°55'713.4
2018-May-22 15:00N 42°22' W 071°03'0 0.0
2018-May-22 14:29N 42°22' W 071°03'0 0.0
2018-May-22 14:01N 42°22' W 071°03'0 0.5
2018-May-22 13:30N 42°22' W 071°03'713.1
2018-May-22 13:00N 42°18' W 070°55'713.5
2018-May-22 12:30N 42°22' W 071°03'713.5
2018-May-22 12:00N 42°18' W 070°55'612.9
2018-May-22 11:30N 42°22' W 071°03'612.8
2018-May-22 11:00N 42°18' W 070°55'3 5.9
2018-May-22 10:30N 42°15' W 070°55'2 4.5
2018-May-22 10:00N 42°15' W 070°58'0 0.3
2018-May-22 09:30N 42°15' W 070°58'  
2018-May-18 18:44N 42°15' W 070°58'0 0.1
2018-May-18 18:30N 42°15' W 070°58'0 0.0
2018-May-18 18:00N 42°15' W 070°58'0 0.0
2018-May-18 02:52N 42°15' W 070°58'2 6.5
2018-May-18 02:30N 42°15' W 070°55'816.0
2018-May-18 02:00N 42°22' W 071°02'1 1.3
2018-May-18 01:30N 42°22' W 071°03'816.9
2018-May-18 01:00N 42°15' W 070°55'612.1
2018-May-18 00:30N 42°20' W 070°59'2 4.1
2018-May-18 00:00N 42°22' W 071°02'815.9
2018-May-17 23:30N 42°15' W 070°55'3 6.4
2018-May-17 23:00N 42°18' W 070°56'612.7
2018-May-17 22:30N 42°22' W 071°03'713.5
2018-May-17 22:00N 42°18' W 070°55'713.4
2018-May-17 21:30N 42°22' W 071°03'1 1.9
2018-May-17 21:01N 42°22' W 071°02'815.9
2018-May-17 20:30N 42°15' W 070°55'3 5.8
2018-May-17 20:00N 42°18' W 070°55'713.2
2018-May-17 19:30N 42°22' W 071°03'917.4
2018-May-17 19:01N 42°15' W 070°55'0 0.6
2018-May-17 18:30N 42°16' W 070°55'816.9
2018-May-17 18:00N 42°22' W 071°03'1 2.0
2018-May-17 17:30N 42°21' W 071°02'815.6
2018-May-17 17:00N 42°15' W 070°55'5 9.6
2018-May-17 16:30N 42°19' W 070°59'4 7.5
2018-May-17 16:00N 42°22' W 071°03'0 0.0
2018-May-17 15:30N 42°22' W 071°03'0 0.5
2018-May-17 15:00N 42°22' W 071°03'4 7.1
2018-May-17 14:30N 42°20' W 070°58'510.7
2018-May-17 14:00N 42°15' W 070°55'612.3
2018-May-17 13:30N 42°20' W 071°00'2 4.9
2018-May-17 13:00N 42°22' W 071°03'713.1
2018-May-17 12:30N 42°18' W 070°55'713.6
2018-May-17 12:01N 42°22' W 071°03'713.4
2018-May-17 11:30N 42°18' W 070°55'0 0.4
2018-May-17 11:01N 42°18' W 070°55'612.2
2018-May-17 10:31N 42°22' W 071°02'612.5
2018-May-17 10:00N 42°18' W 070°55'0 0.0
2018-May-17 01:41N 42°18' W 070°55'421.7
2018-May-17 01:30N 42°20' W 070°59'3 6.0
2018-May-17 01:00N 42°22' W 071°03'917.2
2018-May-17 00:30N 42°15' W 070°55'3 6.5
2018-May-17 00:00N 42°18' W 070°58'510.7
2018-May-16 23:30N 42°22' W 071°03'815.9
2018-May-16 22:59N 42°16' W 070°55'2 4.4
2018-May-16 22:30N 42°18' W 070°55'713.3
2018-May-16 22:00N 42°22' W 071°03'3 6.9
2018-May-16 21:30N 42°19' W 070°60'4 8.9
2018-May-16 21:00N 42°16' W 070°56'815.5
2018-May-16 20:31N 42°22' W 071°03'4 8.8
2018-May-16 20:00N 42°19' W 070°59'4 8.2
2018-May-16 19:30N 42°16' W 070°55'4 7.8
2018-May-16 19:01N 42°19' W 070°56'510.5
2018-May-16 18:30N 42°22' W 071°03'916.8
2018-May-16 18:00N 42°15' W 070°55'3 5.9
2018-May-16 17:30N 42°18' W 070°55'713.6
2018-May-16 17:00N 42°22' W 071°03'4 8.5
2018-May-16 16:31N 42°20' W 070°58'510.1
2018-May-16 16:00N 42°15' W 070°55'3 5.8
2018-May-16 15:30N 42°18' W 070°55'713.5
2018-May-16 15:00N 42°22' W 071°03'0 0.0
2018-May-16 14:30N 42°22' W 071°03'0 0.0
2018-May-16 14:00N 42°22' W 071°03'0 0.0
2018-May-16 13:30N 42°22' W 071°03'713.5
2018-May-16 13:00N 42°18' W 070°55'713.5
2018-May-16 12:30N 42°22' W 071°03'713.5
2018-May-16 12:00N 42°18' W 070°55'612.8
2018-May-16 11:30N 42°22' W 071°03'613.2
2018-May-16 11:00N 42°18' W 070°55'3 0.3
2018-May-16 02:03N 42°15' W 070°55'0 5.5
2018-May-16 02:00N 42°15' W 070°55'612.2
2018-May-16 01:30N 42°20' W 070°60'3 5.2
2018-May-16 01:00N 42°22' W 071°03'816.9
2018-May-16 00:31N 42°15' W 070°55'4 7.6
2018-May-16 00:00N 42°18' W 070°58'5 9.7
2018-May-15 23:30N 42°22' W 071°03'816.5
2018-May-15 23:00N 42°16' W 070°55'2 4.7
2018-May-15 22:30N 42°18' W 070°55'713.6
2018-May-15 22:00N 42°22' W 071°03'4 8.5
2018-May-15 21:30N 42°19' W 070°59'3 6.8
2018-May-15 21:00N 42°16' W 070°56'815.3
2018-May-15 20:30N 42°22' W 071°03'4 8.1
2018-May-15 20:00N 42°19' W 070°59'4 8.6
2018-May-15 19:31N 42°16' W 070°55'3 5.8
2018-May-15 19:01N 42°18' W 070°56'612.4
2018-May-15 18:30N 42°22' W 071°03'917.2
2018-May-15 18:00N 42°15' W 070°55'3 5.8
2018-May-15 17:30N 42°18' W 070°55'713.4
2018-May-15 17:00N 42°22' W 071°03'3 6.4
2018-May-15 16:30N 42°20' W 070°59'611.2
2018-May-15 16:00N 42°15' W 070°55'3 5.8
2018-May-15 15:30N 42°18' W 070°55'713.4
2018-May-15 15:00N 42°22' W 071°03'0 0.0
2018-May-15 14:30N 42°22' W 071°03'0 0.0
2018-May-15 14:00N 42°22' W 071°03'0 0.0
2018-May-15 13:30N 42°22' W 071°03'713.5
2018-May-15 13:00N 42°18' W 070°55'713.4
2018-May-15 12:30N 42°22' W 071°03'713.6
2018-May-15 12:00N 42°18' W 070°55'713.0
2018-May-15 11:31N 42°22' W 071°03'612.9
2018-May-15 11:00N 42°18' W 070°55'3 5.9
2018-May-15 10:30N 42°15' W 070°55'  

Dump ship's entire track history